Time;durP1;ratioP1;P1;durP2;ratioP2;P2;SDS_P1;SDS_P2;PMS_P1;PMS_P2;Temp;Humidity;BMP_temperature;BMP_pressure;BME280_temperature;BME280_humidity;BME280_pressure;Samples;Min_cycle;Max_cycle;Signal;HPM_P1;HPM_P2
2020/12/01 00:01:07;;;;;;;29.27;20.53;;;0.50;95.60;;;;;;5070697;28;20181;-68
2020/12/01 00:03:33;;;;;;;32.20;22.57;;;0.40;95.70;;;;;;5072373;28;20266;-68
2020/12/01 00:05:59;;;;;;;28.93;20.50;;;0.40;96.30;;;;;;5070773;28;20189;-68
2020/12/01 00:08:24;;;;;;;30.47;21.10;;;0.40;96.60;;;;;;5070015;28;20232;-67
2020/12/01 00:10:50;;;;;;;33.23;23.47;;;0.30;97.10;;;;;;5070135;28;20172;-69
2020/12/01 00:13:15;;;;;;;33.17;22.00;;;0.30;97.60;;;;;;5069714;28;20178;-68
2020/12/01 00:15:41;;;;;;;35.77;24.77;;;0.30;97.80;;;;;;5070390;28;20544;-68
2020/12/01 00:18:07;;;;;;;36.33;25.30;;;0.30;98.40;;;;;;5070074;28;20212;-69
2020/12/01 00:20:32;;;;;;;33.83;23.20;;;0.30;98.70;;;;;;5069926;28;20520;-69
2020/12/01 00:22:59;;;;;;;36.70;25.43;;;0.30;98.70;;;;;;5069941;28;20187;-69
2020/12/01 00:25:25;;;;;;;36.67;23.63;;;0.30;99.10;;;;;;5069938;28;20180;-68
2020/12/01 00:27:51;;;;;;;35.73;24.73;;;0.30;99.20;;;;;;5073531;28;20172;-68
2020/12/01 00:30:25;;;;;;;38.27;25.13;;;0.30;99.20;;;;;;5072939;28;20248;-68
2020/12/01 00:32:51;;;;;;;38.07;26.43;;;0.30;99.10;;;;;;5073735;28;20222;-67
2020/12/01 00:35:21;;;;;;;41.50;25.33;;;0.30;99.20;;;;;;5073031;28;20183;-68
2020/12/01 00:37:46;;;;;;;33.67;23.67;;;0.30;99.40;;;;;;5073450;28;20599;-68
2020/12/01 00:40:13;;;;;;;33.50;23.63;;;0.40;99.30;;;;;;5071886;28;20260;-68
2020/12/01 00:42:39;;;;;;;36.77;25.83;;;0.40;99.00;;;;;;5073951;28;20227;-67
2020/12/01 00:45:07;;;;;;;34.20;25.33;;;0.30;99.40;;;;;;5073129;28;20259;-67
2020/12/01 00:47:32;;;;;;;37.03;26.10;;;0.30;99.60;;;;;;5073359;28;20177;-68
2020/12/01 00:49:59;;;;;;;39.77;26.67;;;0.30;99.80;;;;;;5072665;28;20215;-68
2020/12/01 00:52:24;;;;;;;42.67;27.03;;;0.30;99.90;;;;;;5073192;28;20179;-67
2020/12/01 00:54:50;;;;;;;37.23;26.33;;;0.30;99.90;;;;;;5072897;28;20187;-67
2020/12/01 00:57:16;;;;;;;43.57;28.80;;;0.30;99.90;;;;;;5073242;28;20238;-67
2020/12/01 00:59:42;;;;;;;46.13;28.73;;;0.30;99.90;;;;;;5072473;28;20229;-66
2020/12/01 01:02:07;;;;;;;44.57;30.40;;;0.40;99.90;;;;;;5072677;28;20181;-67
2020/12/01 01:04:33;;;;;;;42.67;28.53;;;0.40;99.90;;;;;;5071257;28;20292;-64
2020/12/01 01:06:59;;;;;;;40.80;26.70;;;0.40;99.90;;;;;;5072827;28;20218;-67
2020/12/01 01:09:25;;;;;;;44.20;28.70;;;0.50;99.90;;;;;;5072637;28;20209;-67
2020/12/01 01:11:50;;;;;;;45.47;29.53;;;0.50;99.90;;;;;;5073263;28;20177;-67
2020/12/01 01:14:16;;;;;;;42.70;29.13;;;0.50;99.90;;;;;;5071462;28;20186;-67
2020/12/01 01:16:43;;;;;;;51.03;30.40;;;0.50;99.90;;;;;;5071909;28;20197;-67
2020/12/01 01:19:10;;;;;;;51.70;30.60;;;0.50;99.90;;;;;;5069790;28;20638;-66
2020/12/01 01:21:41;;;;;;;48.27;30.27;;;0.50;99.90;;;;;;5072488;28;20180;-66
2020/12/01 01:24:07;;;;;;;43.70;28.43;;;0.50;99.90;;;;;;5072502;28;20593;-66
2020/12/01 01:26:33;;;;;;;49.97;30.47;;;0.60;99.90;;;;;;5072093;28;20188;-66
2020/12/01 01:28:58;;;;;;;40.07;25.80;;;0.60;99.90;;;;;;5071692;28;20595;-66
2020/12/01 01:31:24;;;;;;;47.53;27.97;;;0.70;99.90;;;;;;5072605;28;20233;-66
2020/12/01 01:33:50;;;;;;;45.00;27.23;;;0.70;99.90;;;;;;5072614;28;20259;-66
2020/12/01 01:36:16;;;;;;;47.50;28.33;;;0.70;99.90;;;;;;5072285;28;20178;-66
2020/12/01 01:38:41;;;;;;;49.80;29.90;;;0.70;99.90;;;;;;5071598;28;20313;-66
2020/12/01 01:41:08;;;;;;;41.53;25.73;;;0.70;99.90;;;;;;5071766;28;20229;-66
2020/12/01 01:43:33;;;;;;;46.70;29.70;;;0.80;99.90;;;;;;5070704;28;20584;-66
2020/12/01 01:45:59;;;;;;;47.43;29.17;;;0.80;99.90;;;;;;5071376;28;20265;-68
2020/12/01 01:48:28;;;;;;;48.70;30.00;;;0.80;99.90;;;;;;5071072;28;20213;-65
2020/12/01 01:51:03;;;;;;;45.10;26.77;;;0.80;99.90;;;;;;5071396;28;20267;-66
2020/12/01 01:53:32;;;;;;;54.63;29.47;;;0.80;99.90;;;;;;5070118;28;20173;-66
2020/12/01 01:56:01;;;;;;;54.17;31.47;;;0.80;99.90;;;;;;5071676;28;20745;-66
2020/12/01 01:58:35;;;;;;;58.47;30.50;;;0.90;99.90;;;;;;5071101;28;20578;-66
2020/12/01 02:01:11;;;;;;;47.77;25.77;;;0.90;99.90;;;;;;5071291;28;20169;-66
2020/12/01 02:03:44;;;;;;;44.53;26.90;;;1.00;99.90;;;;;;5071641;28;20183;-67
2020/12/01 02:06:26;;;;;;;60.20;32.70;;;1.00;99.90;;;;;;5071848;28;20843;-68
2020/12/01 02:09:00;;;;;;;69.10;34.73;;;1.00;99.90;;;;;;5070429;28;20200;-66
2020/12/01 02:11:28;;;;;;;66.77;33.83;;;1.00;99.90;;;;;;5069837;28;20204;-66
2020/12/01 02:14:18;;;;;;;102.73;40.30;;;0.90;99.90;;;;;;5071655;28;20250;-68
2020/12/01 02:16:47;;;;;;;118.97;42.17;;;0.90;99.90;;;;;;5071589;28;20264;-67
2020/12/01 02:19:16;;;;;;;103.70;41.57;;;0.90;99.90;;;;;;5070511;28;20220;-67
2020/12/01 02:21:43;;;;;;;86.63;37.30;;;0.90;99.90;;;;;;5071083;28;20181;-67
2020/12/01 02:24:15;;;;;;;91.63;35.43;;;0.90;99.90;;;;;;5071224;28;20239;-67
2020/12/01 02:26:42;;;;;;;106.50;38.07;;;1.00;99.90;;;;;;5071184;28;20201;-67
2020/12/01 02:29:12;;;;;;;106.47;36.83;;;0.90;99.90;;;;;;5070821;28;20217;-68
2020/12/01 02:31:38;;;;;;;83.50;32.90;;;1.00;99.90;;;;;;5071163;28;20189;-67
2020/12/01 02:34:06;;;;;;;110.17;38.50;;;1.00;99.90;;;;;;5070990;28;20182;-67
2020/12/01 02:36:33;;;;;;;98.97;34.80;;;1.00;99.90;;;;;;5069638;28;20556;-68
2020/12/01 02:38:58;;;;;;;102.30;33.90;;;1.00;99.90;;;;;;5069874;28;20215;-67
2020/12/01 02:41:24;;;;;;;108.73;35.37;;;1.00;99.90;;;;;;5070396;28;20181;-67
2020/12/01 02:43:50;;;;;;;112.13;34.70;;;1.00;99.90;;;;;;5070005;28;20185;-68
2020/12/01 02:46:15;;;;;;;112.27;35.17;;;1.00;99.90;;;;;;5070625;28;20167;-68
2020/12/01 02:48:41;;;;;;;116.00;37.60;;;1.00;99.90;;;;;;5069616;28;20207;-67
2020/12/01 02:51:06;;;;;;;148.60;41.33;;;1.00;99.90;;;;;;5070516;28;20178;-67
2020/12/01 02:53:32;;;;;;;95.43;35.40;;;1.00;99.90;;;;;;5070445;28;20870;-67
2020/12/01 02:55:58;;;;;;;81.40;33.57;;;1.10;99.90;;;;;;5070438;28;20185;-67
2020/12/01 02:58:23;;;;;;;93.90;35.50;;;1.10;99.90;;;;;;5069089;28;20284;-68
2020/12/01 03:00:49;;;;;;;79.10;33.40;;;1.10;99.90;;;;;;5070085;28;20178;-68
2020/12/01 03:03:15;;;;;;;76.50;33.00;;;1.10;99.90;;;;;;5069286;28;20209;-69
2020/12/01 03:05:40;;;;;;;97.27;35.87;;;1.10;99.90;;;;;;5068829;28;20640;-69
2020/12/01 03:08:06;;;;;;;146.27;40.23;;;1.10;99.90;;;;;;5068905;28;20208;-68
2020/12/01 03:10:32;;;;;;;72.90;32.87;;;1.10;99.90;;;;;;5070013;28;20261;-67
2020/12/01 03:12:57;;;;;;;102.57;36.03;;;1.10;99.90;;;;;;5068902;28;20268;-67
2020/12/01 03:15:23;;;;;;;100.53;36.33;;;1.10;99.90;;;;;;5070276;28;20678;-68
2020/12/01 03:17:49;;;;;;;90.40;33.67;;;1.10;99.90;;;;;;5070037;28;20189;-67
2020/12/01 03:20:15;;;;;;;119.60;36.33;;;1.10;99.90;;;;;;5070106;28;20178;-68
2020/12/01 03:22:40;;;;;;;97.90;35.63;;;1.10;99.90;;;;;;5068145;28;20186;-69
2020/12/01 03:25:06;;;;;;;110.47;36.57;;;1.10;99.90;;;;;;5070526;28;20172;-68
2020/12/01 03:27:31;;;;;;;81.23;29.63;;;1.10;99.90;;;;;;5070410;28;20200;-68
2020/12/01 03:29:57;;;;;;;60.77;26.43;;;1.20;99.90;;;;;;5069948;28;20297;-68
2020/12/01 03:32:24;;;;;;;52.47;26.83;;;1.20;99.90;;;;;;5070238;28;20175;-68
2020/12/01 03:34:50;;;;;;;40.47;21.37;;;1.20;99.90;;;;;;5069987;28;20186;-68
2020/12/01 03:37:16;;;;;;;39.47;20.33;;;1.30;99.90;;;;;;5070391;28;20231;-68
2020/12/01 03:39:42;;;;;;;50.70;21.73;;;1.40;99.90;;;;;;5070141;28;20210;-69
2020/12/01 03:42:07;;;;;;;38.37;19.40;;;1.50;99.90;;;;;;5069981;28;20195;-67
2020/12/01 03:44:33;;;;;;;32.93;18.20;;;1.60;99.90;;;;;;5070310;28;20273;-67
2020/12/01 03:46:59;;;;;;;39.33;20.57;;;1.60;99.90;;;;;;5069877;28;20189;-68
2020/12/01 03:49:24;;;;;;;41.07;20.13;;;1.70;99.90;;;;;;5069534;28;20296;-68
2020/12/01 03:51:50;;;;;;;44.27;23.63;;;1.70;99.90;;;;;;5070212;28;20174;-68
2020/12/01 03:54:15;;;;;;;43.23;22.40;;;1.60;99.90;;;;;;5069458;28;20228;-69
2020/12/01 03:56:41;;;;;;;49.60;25.53;;;1.50;99.90;;;;;;5070484;28;20180;-69
2020/12/01 03:59:07;;;;;;;40.30;22.07;;;1.50;99.90;;;;;;5069397;28;20202;-68
2020/12/01 04:01:33;;;;;;;37.70;19.57;;;1.60;99.90;;;;;;5071581;28;20190;-69
2020/12/01 04:03:58;;;;;;;45.97;21.70;;;1.60;99.90;;;;;;5073097;28;20203;-68
2020/12/01 04:06:24;;;;;;;41.27;20.37;;;1.60;99.90;;;;;;5073351;28;20639;-68
2020/12/01 04:08:49;;;;;;;41.13;19.60;;;1.60;99.90;;;;;;5072913;28;20247;-68
2020/12/01 04:11:16;;;;;;;47.87;20.83;;;1.70;99.90;;;;;;5069274;28;20531;-68
2020/12/01 04:13:41;;;;;;;59.73;21.53;;;1.70;99.90;;;;;;5072983;28;20179;-68
2020/12/01 04:16:07;;;;;;;51.17;20.73;;;1.80;99.90;;;;;;5073589;28;20677;-68
2020/12/01 04:18:33;;;;;;;41.00;19.90;;;1.80;99.90;;;;;;5073569;28;20245;-69
2020/12/01 04:20:58;;;;;;;50.37;20.90;;;1.90;99.90;;;;;;5072735;28;20213;-68
2020/12/01 04:23:24;;;;;;;59.00;23.83;;;1.80;99.90;;;;;;5072015;28;20606;-70
2020/12/01 04:25:49;;;;;;;44.40;23.00;;;1.70;99.90;;;;;;5073202;28;20221;-68
2020/12/01 04:28:15;;;;;;;60.30;27.60;;;1.70;99.90;;;;;;5073284;28;20209;-68
2020/12/01 04:30:41;;;;;;;59.80;28.27;;;1.60;99.90;;;;;;5073162;28;20182;-67
2020/12/01 04:33:06;;;;;;;77.53;31.43;;;1.60;99.90;;;;;;5073036;28;20183;-68
2020/12/01 04:35:32;;;;;;;68.33;30.97;;;1.60;99.90;;;;;;5072496;28;20717;-69
2020/12/01 04:38:01;;;;;;;106.30;35.47;;;1.50;99.90;;;;;;5073326;28;20240;-68
2020/12/01 04:40:32;;;;;;;78.77;32.00;;;1.50;99.90;;;;;;5072753;28;20323;-68
2020/12/01 04:43:02;;;;;;;100.80;37.10;;;1.50;99.90;;;;;;5072898;28;20189;-68
2020/12/01 04:45:29;;;;;;;109.57;37.33;;;1.40;99.90;;;;;;5058568;28;20186;-68
2020/12/01 04:48:08;;;;;;;74.47;32.77;;;1.40;99.90;;;;;;5073146;28;20251;-67
2020/12/01 04:50:40;;;;;;;117.53;40.13;;;1.40;99.90;;;;;;5062890;28;20181;-69
2020/12/01 04:53:33;;;;;;;74.97;34.20;;;1.40;99.90;;;;;;5073109;28;20550;-69
2020/12/01 04:56:28;;;;;;;97.03;36.77;;;1.40;99.90;;;;;;5072226;28;20186;-68
2020/12/01 04:59:36;;;;;;;108.73;36.97;;;1.40;99.90;;;;;;5071412;28;20557;-68
2020/12/01 05:02:16;;;;;;;113.37;36.83;;;1.40;99.90;;;;;;5044124;28;20232;-68
2020/12/01 05:05:01;;;;;;;104.53;35.67;;;1.40;99.90;;;;;;5072811;28;20264;-67
2020/12/01 05:07:48;;;;;;;100.50;35.10;;;1.40;99.90;;;;;;5072505;28;20174;-67
2020/12/01 05:10:15;;;;;;;107.27;38.63;;;1.40;99.90;;;;;;5064985;28;20745;-67
2020/12/01 05:12:44;;;;;;;125.93;41.13;;;1.40;99.90;;;;;;5072085;28;20217;-69
2020/12/01 05:15:42;;;;;;;164.73;43.77;;;1.40;99.90;;;;;;5071199;28;20571;-69
2020/12/01 05:18:29;;;;;;;160.93;44.03;;;1.40;99.90;;;;;;5070157;28;20245;-68
2020/12/01 05:20:58;;;;;;;160.47;43.83;;;1.40;99.90;;;;;;5072137;28;20654;-68
2020/12/01 05:23:42;;;;;;;161.17;43.83;;;1.50;99.90;;;;;;5072614;28;20171;-69
2020/12/01 05:26:11;;;;;;;88.67;33.13;;;1.50;99.90;;;;;;5072185;28;20177;-70
2020/12/01 05:28:46;;;;;;;118.37;36.87;;;1.50;99.90;;;;;;5071679;28;20544;-70
2020/12/01 05:31:13;;;;;;;136.57;38.23;;;1.60;99.90;;;;;;5070530;28;20181;-68
2020/12/01 05:33:39;;;;;;;120.33;36.40;;;1.60;99.90;;;;;;5072357;28;20236;-69
2020/12/01 05:36:17;;;;;;;78.60;32.17;;;1.60;99.90;;;;;;5072063;28;20175;-68
2020/12/01 05:38:54;;;;;;;59.40;27.47;;;1.60;99.90;;;;;;5067687;28;20213;-68
2020/12/01 05:41:29;;;;;;;59.10;27.70;;;1.60;99.90;;;;;;5071074;28;20551;-69
2020/12/01 05:44:01;;;;;;;79.30;31.57;;;1.70;99.90;;;;;;5063707;28;20665;-70
2020/12/01 05:47:05;;;;;;;56.17;27.27;;;1.70;99.90;;;;;;5067318;28;20185;-68
2020/12/01 05:49:47;;;;;;;38.53;21.63;;;1.80;99.90;;;;;;5047361;28;20206;-68
2020/12/01 05:52:25;;;;;;;46.37;24.27;;;1.90;99.90;;;;;;5044733;28;20191;-69
2020/12/01 05:55:25;;;;;;;45.17;23.83;;;2.00;99.90;;;;;;5048692;28;20201;-69
2020/12/01 05:58:12;;;;;;;45.57;23.57;;;2.10;99.90;;;;;;5043105;28;20195;-69
2020/12/01 06:00:43;;;;;;;37.23;21.23;;;2.10;99.90;;;;;;5048520;28;20191;-70
2020/12/01 06:03:33;;;;;;;33.97;20.70;;;2.10;99.90;;;;;;5048366;28;20179;-69
2020/12/01 06:06:01;;;;;;;29.00;18.13;;;2.20;99.90;;;;;;5039859;28;20667;-67
2020/12/01 06:08:32;;;;;;;31.30;18.90;;;2.20;99.90;;;;;;5047293;28;20222;-68
2020/12/01 06:11:08;;;;;;;36.33;19.53;;;2.30;99.90;;;;;;5045843;28;20187;-68
2020/12/01 06:13:44;;;;;;;19.83;14.07;;;2.30;99.90;;;;;;5047521;28;20675;-67
2020/12/01 06:16:25;;;;;;;22.80;14.67;;;2.30;99.90;;;;;;5032738;28;20192;-67
2020/12/01 06:19:02;;;;;;;27.50;17.27;;;2.30;99.90;;;;;;5048455;28;20215;-67
2020/12/01 06:22:05;;;;;;;21.23;14.73;;;2.30;99.90;;;;;;5032284;28;20641;-66
2020/12/01 06:24:56;;;;;;;22.50;15.10;;;2.30;99.90;;;;;;5068777;28;20187;-68
2020/12/01 06:27:45;;;;;;;23.80;15.47;;;2.30;99.90;;;;;;5071593;28;20807;-68
2020/12/01 06:31:12;;;;;;;25.33;16.87;;;2.30;99.90;;;;;;5070687;28;20572;-67
2020/12/01 06:34:21;;;;;;;24.70;16.20;;;2.30;99.90;;;;;;5029671;28;20228;-68
2020/12/01 06:37:17;;;;;;;29.23;18.30;;;2.30;99.90;;;;;;5069847;28;20674;-67
2020/12/01 06:40:01;;;;;;;27.90;18.93;;;2.30;99.90;;;;;;5070088;28;20209;-68
2020/12/01 06:42:51;;;;;;;31.87;18.90;;;2.20;99.90;;;;;;5065203;28;20268;-67
2020/12/01 06:45:25;;;;;;;28.13;18.83;;;2.20;99.90;;;;;;5070146;28;20713;-68
2020/12/01 06:47:52;;;;;;;29.33;18.63;;;2.10;99.90;;;;;;5068906;28;20209;-68
2020/12/01 06:50:21;;;;;;;35.83;20.20;;;2.10;99.90;;;;;;5066196;28;20218;-68
2020/12/01 06:52:54;;;;;;;34.70;21.60;;;2.10;99.90;;;;;;5070040;28;20232;-68
2020/12/01 06:55:37;;;;;;;30.33;20.60;;;2.10;99.90;;;;;;5070698;28;20208;-68
2020/12/01 06:58:14;;;;;;;34.47;21.60;;;2.00;99.90;;;;;;5070459;28;20179;-67
2020/12/01 07:00:40;;;;;;;32.20;19.77;;;2.00;99.90;;;;;;5070039;28;20178;-68
2020/12/01 07:03:09;;;;;;;37.37;22.13;;;2.00;99.90;;;;;;5070488;28;20652;-67
2020/12/01 07:05:35;;;;;;;33.43;22.20;;;1.90;99.90;;;;;;5070649;28;20271;-67
2020/12/01 07:08:22;;;;;;;45.93;25.03;;;1.90;99.90;;;;;;5070227;28;20187;-68
2020/12/01 07:10:48;;;;;;;43.50;24.67;;;1.80;99.90;;;;;;5069778;28;20187;-67
2020/12/01 07:13:39;;;;;;;41.13;24.33;;;1.90;99.90;;;;;;5065090;28;20198;-68
2020/12/01 07:16:22;;;;;;;41.97;22.80;;;1.90;99.90;;;;;;5063359;28;20341;-67
2020/12/01 07:18:47;;;;;;;47.20;29.40;;;1.90;99.90;;;;;;5065241;28;20464;-69
2020/12/01 07:21:24;;;;;;;34.20;21.03;;;1.90;99.90;;;;;;5063824;28;20185;-70
2020/12/01 07:24:14;;;;;;;32.43;20.50;;;1.90;99.90;;;;;;5065323;28;20211;-68
2020/12/01 07:27:02;;;;;;;24.73;17.57;;;2.00;99.90;;;;;;5070362;28;20764;-68
2020/12/01 07:30:02;;;;;;;28.37;17.27;;;2.10;99.90;;;;;;5068840;28;20210;-68
2020/12/01 07:32:31;;;;;;;27.73;18.10;;;2.10;99.90;;;;;;5065112;28;20190;-68
2020/12/01 07:35:28;;;;;;;27.67;19.03;;;2.20;99.90;;;;;;5067978;28;20174;-68
2020/12/01 07:38:01;;;;;;;28.67;19.60;;;2.20;99.90;;;;;;5071980;28;20177;-67
2020/12/01 07:40:29;;;;;;;24.00;16.47;;;2.20;99.90;;;;;;5070586;28;20178;-68
2020/12/01 07:43:04;;;;;;;25.07;17.13;;;2.20;99.90;;;;;;5073772;28;20732;-68
2020/12/01 07:45:30;;;;;;;25.17;16.30;;;2.20;99.90;;;;;;5074014;28;20209;-69
2020/12/01 07:47:59;;;;;;;25.73;17.10;;;2.30;99.90;;;;;;5074127;28;20178;-68
2020/12/01 07:50:26;;;;;;;22.73;15.50;;;2.30;99.90;;;;;;5073937;28;20217;-68
2020/12/01 07:53:04;;;;;;;17.47;13.37;;;2.30;99.90;;;;;;5074010;28;20674;-68
2020/12/01 07:55:46;;;;;;;20.37;14.40;;;2.30;99.90;;;;;;5074065;28;20191;-68
2020/12/01 07:58:20;;;;;;;22.63;13.90;;;2.40;99.90;;;;;;5073676;28;20192;-67
2020/12/01 08:00:52;;;;;;;17.57;12.33;;;2.40;99.90;;;;;;5073528;28;20182;-67
2020/12/01 08:03:24;;;;;;;18.77;13.93;;;2.40;99.90;;;;;;5073761;28;20181;-68
2020/12/01 08:05:52;;;;;;;17.87;13.57;;;2.50;99.90;;;;;;5073739;28;20171;-69
2020/12/01 08:08:20;;;;;;;22.73;15.15;;;2.50;99.90;;;;;;5073105;28;20115;-70
2020/12/01 08:10:48;;;;;;;17.52;14.77;;;2.50;99.90;;;;;;5065507;28;20919;-67
2020/12/01 08:13:15;;;;;;;18.08;14.68;;;2.60;99.90;;;;;;5072343;28;20468;-68
2020/12/01 08:15:41;;;;;;;18.00;13.13;;;2.50;99.90;;;;;;5070193;28;20241;-68
2020/12/01 08:18:13;;;;;;;16.57;12.37;;;2.50;99.90;;;;;;5070536;28;20636;-68
2020/12/01 08:20:39;;;;;;;13.97;11.30;;;2.50;99.90;;;;;;5066339;28;20655;-68
2020/12/01 08:23:11;;;;;;;15.17;12.03;;;2.60;99.90;;;;;;5073208;28;20203;-68
2020/12/01 08:25:37;;;;;;;13.27;11.97;;;2.60;99.90;;;;;;5073361;28;20210;-67
2020/12/01 08:28:13;;;;;;;15.13;12.40;;;2.60;99.90;;;;;;5071902;28;20189;-68
2020/12/01 08:31:07;;;;;;;12.37;10.23;;;2.60;99.90;;;;;;5072526;28;20260;-68
2020/12/01 08:33:39;;;;;;;17.47;15.03;;;2.60;99.90;;;;;;5062316;28;20178;-68
2020/12/01 08:36:46;;;;;;;15.90;12.70;;;2.60;99.90;;;;;;5072901;28;20184;-68
2020/12/01 08:39:40;;;;;;;16.03;13.97;;;2.50;99.90;;;;;;5032691;28;20210;-68
2020/12/01 08:42:31;;;;;;;11.40;9.20;;;2.60;99.90;;;;;;5030093;28;20811;-68
2020/12/01 08:45:11;;;;;;;12.13;10.50;;;2.60;99.90;;;;;;5030030;28;20203;-68
2020/12/01 08:47:37;;;;;;;17.83;11.97;;;2.60;99.90;;;;;;5029755;28;20184;-68
2020/12/01 08:50:23;;;;;;;13.47;11.47;;;2.50;99.90;;;;;;5035709;28;20306;-67
2020/12/01 08:52:49;;;;;;;20.77;12.93;;;2.50;99.90;;;;;;5034764;28;20267;-68
2020/12/01 08:55:31;;;;;;;13.80;11.53;;;2.50;99.90;;;;;;5030546;28;20191;-68
2020/12/01 08:58:12;;;;;;;14.00;11.17;;;2.40;99.90;;;;;;5030167;28;20239;-68
2020/12/01 09:00:37;;;;;;;16.77;12.97;;;2.30;99.90;;;;;;5030340;28;20184;-68
2020/12/01 09:03:09;;;;;;;19.17;13.73;;;2.20;99.90;;;;;;5029819;28;20184;-69
2020/12/01 09:05:45;;;;;;;19.50;14.07;;;2.20;99.90;;;;;;5029949;28;20175;-68
2020/12/01 09:08:35;;;;;;;20.53;13.63;;;2.10;99.90;;;;;;5030001;28;20414;-68
2020/12/01 09:14:35;;;;;;;27.03;17.20;;;2.10;99.90;;;;;;5072719;28;20705;-68
2020/12/01 09:17:24;;;;;;;29.67;19.63;;;2.20;99.90;;;;;;5072409;28;20269;-68
2020/12/01 09:22:24;;;;;;;22.77;16.57;;;2.30;99.90;;;;;;5072530;28;20174;-68
2020/12/01 09:24:50;;;;;;;19.83;14.90;;;2.20;99.90;;;;;;5071506;28;20612;-68
2020/12/01 09:27:17;;;;;;;27.40;17.73;;;2.20;99.90;;;;;;5072631;28;20182;-69
2020/12/01 09:29:48;;;;;;;21.10;16.67;;;2.20;99.90;;;;;;5071880;28;20289;-68
2020/12/01 09:32:23;;;;;;;30.87;19.87;;;2.10;99.90;;;;;;5065139;28;20535;-68
2020/12/01 09:34:50;;;;;;;23.43;17.63;;;2.20;99.90;;;;;;5072058;28;20179;-68
2020/12/01 09:37:17;;;;;;;19.30;15.10;;;2.20;99.90;;;;;;5072211;28;20189;-68
2020/12/01 09:39:43;;;;;;;25.53;16.10;;;2.10;99.90;;;;;;5071581;28;20218;-68
2020/12/01 09:42:12;;;;;;;22.23;16.80;;;2.20;99.90;;;;;;5071973;28;20179;-69
2020/12/01 09:47:36;;;;;;;25.37;18.07;;;2.20;99.90;;;;;;5072457;28;20258;-67
2020/12/01 09:50:07;;;;;;;22.10;16.40;;;2.20;99.90;;;;;;5071550;28;20202;-68
2020/12/01 09:52:46;;;;;;;22.27;15.27;;;2.10;99.90;;;;;;5070950;28;20187;-67
2020/12/01 09:58:00;;;;;;;21.47;15.37;;;2.10;99.90;;;;;;5071352;28;20626;-68
2020/12/01 10:00:58;;;;;;;23.00;16.57;;;2.20;99.90;;;;;;5071364;28;20182;-68
2020/12/01 10:15:20;;;;;;;29.33;18.00;;;2.40;99.90;;;;;;5071590;28;20183;-68
2020/12/01 10:17:31;;;;;;;27.13;18.37;;;2.40;99.90;;;;;;5064355;28;20177;-68
2020/12/01 10:35:42;;;;;;;20.40;14.27;;;2.60;99.90;;;;;;5070826;28;20177;-68
2020/12/01 10:38:07;;;;;;;23.80;15.57;;;2.60;99.90;;;;;;5068391;28;20183;-68
2020/12/01 10:40:33;;;;;;;23.97;18.87;;;2.60;99.90;;;;;;5068941;28;20178;-68
2020/12/01 10:42:59;;;;;;;25.80;19.33;;;2.70;99.90;;;;;;5069636;28;20175;-68
2020/12/01 10:45:27;;;;;;;22.40;17.50;;;2.80;99.90;;;;;;5069381;28;20237;-69
2020/12/01 10:47:53;;;;;;;25.17;16.67;;;2.80;99.90;;;;;;5070739;28;20186;-68
2020/12/01 10:50:23;;;;;;;18.03;13.27;;;2.80;99.90;;;;;;5069997;28;20221;-68
2020/12/01 10:52:48;;;;;;;19.97;14.90;;;2.80;99.90;;;;;;5071146;28;20659;-68
2020/12/01 10:55:22;;;;;;;28.03;16.47;;;2.80;99.90;;;;;;5069672;28;20170;-68
2020/12/01 10:57:51;;;;;;;21.70;14.63;;;2.80;99.90;;;;;;5071556;28;20191;-69
2020/12/01 11:00:19;;;;;;;23.83;16.73;;;2.80;99.90;;;;;;5074884;28;20179;-68
2020/12/01 11:02:44;;;;;;;20.63;15.47;;;2.90;99.90;;;;;;5069493;28;20183;-68
2020/12/01 11:05:18;;;;;;;19.83;13.73;;;2.90;99.90;;;;;;5062960;28;20176;-68
2020/12/01 11:07:43;;;;;;;27.00;18.20;;;2.90;99.90;;;;;;5064410;28;20183;-68
2020/12/01 11:10:09;;;;;;;98.37;66.07;;;2.90;99.90;;;;;;5069362;28;20588;-68
2020/12/01 11:12:35;;;;;;;77.73;49.90;;;2.90;99.90;;;;;;5070680;28;20187;-68
2020/12/01 11:15:00;;;;;;;89.67;59.33;;;2.90;99.90;;;;;;5070605;28;20258;-67
2020/12/01 11:17:26;;;;;;;24.13;19.97;;;3.00;99.90;;;;;;5070171;28;20276;-68
2020/12/01 11:19:52;;;;;;;17.57;13.63;;;3.10;99.90;;;;;;5061511;28;20271;-68
2020/12/01 11:22:18;;;;;;;13.70;12.10;;;3.10;99.90;;;;;;5067959;28;20680;-69
2020/12/01 11:24:43;;;;;;;18.37;12.60;;;3.00;99.90;;;;;;5069413;28;20192;-68
2020/12/01 11:27:10;;;;;;;16.37;11.43;;;3.00;99.90;;;;;;5069956;28;20618;-69
2020/12/01 11:29:36;;;;;;;16.67;12.17;;;3.00;99.90;;;;;;5068927;28;20266;-68
2020/12/01 11:32:02;;;;;;;18.00;13.43;;;3.00;99.90;;;;;;5070017;28;20178;-68
2020/12/01 11:34:27;;;;;;;17.13;13.93;;;3.00;99.90;;;;;;5070107;28;20259;-68
2020/12/01 11:36:54;;;;;;;25.50;17.80;;;3.00;99.90;;;;;;5069317;28;20189;-67
2020/12/01 11:39:20;;;;;;;23.63;19.92;;;3.00;99.90;;;;;;5068786;28;20919;-68
2020/12/01 11:41:46;;;;;;;20.37;14.63;;;3.00;99.90;;;;;;5069589;28;20212;-68
2020/12/01 11:44:13;;;;;;;24.33;14.40;;;3.00;99.90;;;;;;5070047;28;20654;-67
2020/12/01 11:46:39;;;;;;;16.83;13.50;;;2.90;99.90;;;;;;5069848;28;20535;-68
2020/12/01 11:49:05;;;;;;;18.87;13.40;;;2.90;99.90;;;;;;5069358;28;20600;-67
2020/12/01 11:51:32;;;;;;;22.10;16.47;;;2.90;99.90;;;;;;5057319;28;20176;-68
2020/12/01 11:53:58;;;;;;;19.33;13.30;;;2.90;99.90;;;;;;5069780;28;20657;-67
2020/12/01 11:56:24;;;;;;;15.27;12.20;;;2.90;99.90;;;;;;5069785;28;20311;-70
2020/12/01 11:58:50;;;;;;;15.93;12.40;;;2.90;99.90;;;;;;5069022;28;20218;-68
2020/12/01 12:01:16;;;;;;;16.00;12.07;;;2.80;99.90;;;;;;5069415;28;20171;-68
2020/12/01 12:03:42;;;;;;;18.37;13.67;;;2.80;99.90;;;;;;5069998;28;20185;-68
2020/12/01 12:06:08;;;;;;;24.03;13.97;;;2.80;99.90;;;;;;5061033;28;20210;-68
2020/12/01 12:08:34;;;;;;;19.17;14.00;;;3.00;99.90;;;;;;5067984;28;20213;-68
2020/12/01 12:11:00;;;;;;;14.93;11.85;;;2.90;99.90;;;;;;5068297;28;20851;-67
2020/12/01 12:13:27;;;;;;;14.00;10.57;;;2.90;99.90;;;;;;5070176;28;20178;-69
2020/12/01 12:15:53;;;;;;;16.07;12.80;;;2.90;99.90;;;;;;5065859;28;20284;-68
2020/12/01 12:18:18;;;;;;;31.63;18.33;;;2.90;99.90;;;;;;5064655;28;20301;-69
2020/12/01 12:20:44;;;;;;;46.60;26.00;;;2.90;99.90;;;;;;5062923;28;20176;-70
2020/12/01 12:23:09;;;;;;;9.57;8.50;;;3.00;99.90;;;;;;5069560;28;20252;-68
2020/12/01 12:25:35;;;;;;;11.70;8.70;;;3.00;99.90;;;;;;5070255;28;20190;-68
2020/12/01 12:28:01;;;;;;;10.43;9.30;;;3.00;99.90;;;;;;5073117;28;20258;-69
2020/12/01 12:30:26;;;;;;;13.70;10.17;;;3.00;99.90;;;;;;5065961;28;20731;-68
2020/12/01 12:32:52;;;;;;;12.97;11.00;;;3.00;99.90;;;;;;5072890;28;20197;-68
2020/12/01 12:35:18;;;;;;;11.67;10.43;;;3.00;99.90;;;;;;5072528;28;20185;-69
2020/12/01 12:37:43;;;;;;;11.40;9.90;;;3.00;99.90;;;;;;5073320;28;20209;-68
2020/12/01 12:40:09;;;;;;;9.80;8.67;;;3.00;99.90;;;;;;5072304;28;20235;-70
2020/12/01 12:42:35;;;;;;;14.03;10.87;;;3.00;99.90;;;;;;5070803;28;20262;-68
2020/12/01 12:45:01;;;;;;;10.53;8.93;;;3.10;99.90;;;;;;5071195;28;20564;-69
2020/12/01 12:47:26;;;;;;;11.40;9.20;;;3.10;99.90;;;;;;5073053;28;20172;-68
2020/12/01 12:49:52;;;;;;;12.37;10.47;;;3.10;99.90;;;;;;5072518;28;20207;-69
2020/12/01 12:52:18;;;;;;;16.80;11.10;;;3.10;99.90;;;;;;5072238;28;20184;-69
2020/12/01 12:54:43;;;;;;;11.17;9.37;;;3.10;99.90;;;;;;5063985;28;20204;-68
2020/12/01 12:57:09;;;;;;;13.87;11.00;;;3.10;99.90;;;;;;5062570;28;20195;-68
2020/12/01 12:59:34;;;;;;;13.77;11.10;;;3.00;99.90;;;;;;5069055;28;20196;-68
2020/12/01 13:02:00;;;;;;;9.90;8.73;;;3.00;99.90;;;;;;5066528;28;20180;-68
2020/12/01 13:04:26;;;;;;;11.70;9.40;;;3.00;99.90;;;;;;5073003;28;20202;-68
2020/12/01 13:06:51;;;;;;;12.43;9.20;;;3.00;99.90;;;;;;5072539;28;20211;-68
2020/12/01 13:09:17;;;;;;;13.97;11.77;;;2.90;99.90;;;;;;5072101;28;20285;-68
2020/12/01 13:11:42;;;;;;;10.33;8.47;;;2.90;99.90;;;;;;5072291;28;20179;-68
2020/12/01 13:14:08;;;;;;;12.60;11.30;;;3.10;99.90;;;;;;5060787;28;20173;-69
2020/12/01 13:16:34;;;;;;;12.53;9.67;;;3.10;99.90;;;;;;5071088;28;20224;-68
2020/12/01 13:19:00;;;;;;;12.77;9.43;;;3.10;99.90;;;;;;5067237;28;20214;-68
2020/12/01 13:21:25;;;;;;;11.37;10.17;;;3.20;99.90;;;;;;5072026;28;20184;-67
2020/12/01 13:23:51;;;;;;;15.20;10.73;;;3.30;99.90;;;;;;5071869;28;20567;-68
2020/12/01 13:26:20;;;;;;;13.23;10.23;;;3.30;99.90;;;;;;5071418;28;20178;-68
2020/12/01 13:28:47;;;;;;;12.60;11.10;;;3.30;99.90;;;;;;5071433;28;20722;-68
2020/12/01 13:31:13;;;;;;;11.57;9.90;;;3.30;99.90;;;;;;5065315;28;20182;-70
2020/12/01 13:33:38;;;;;;;11.43;9.43;;;3.40;99.90;;;;;;5070095;28;20240;-68